GVSV

Details ICAO GVSV (VXE)
Name Sao Pedro
Region Cape Verde
Timezone Atlantic/Cape_Verde (UTC-1.0)
Plans Departing 34
Arriving 26
Stats Elevation 66 ft / 20 m (AMSL)
Location 16.833703° -25.054661°
Runways 1
Magnetic Variation 10.057° W
Sunrise 2018-05-25 07:08:14 UTC / 2018-05-25 06:08:14 Local
Sunset 2018-05-25 20:08:58 UTC / 2018-05-25 19:08:58 Local
Advertisement - Login to hide

Runways

ID Width Length Bearing (true) Bearing (mag) Surface Threshold Offset Overrun Length
07 148 ft / 45 m 6,493 ft / 1,979 m 53.56° 63.62° Asphalt 1,066 ft / 325 m 0 ft / 0 m
25 148 ft / 45 m 6,493 ft / 1,979 m 233.57° 243.63° Asphalt 1,113 ft / 339 m 0 ft / 0 m

Map

Weather


0- 5 10 15 20 25 30 35+ Temperature / ° C

Clouds and Precipitation
Forecast for 2018-05-25 12:00 UTC. Updated 4 hours ago

Ground ~20,000 ft ~40,000 ft Winds

METAR

GVSV 251500Z 06023KT 9999 FEW023 26/14 Q1015 NOSIG

TAF

TAF GVSV 251100Z 2512/2618 06025KT 9999 FEW022 TEMPO 2512/2521 06025G35KT PROB30 TEMPO 2602/2608 06015KT SCT020

Frequencies

Tower 118.40 MHz SAO VICENTE TWR
Approach 118.40 MHz SAO VICENTE APP
Warning: Do not use this data for real-world aviation or navigation. No guarantee of current accuracy is given.